Time;durP1;ratioP1;P1;durP2;ratioP2;P2;SDS_P1;SDS_P2;PMS_P1;PMS_P2;Temp;Humidity;BMP_temperature;BMP_pressure;BME280_temperature;BME280_humidity;BME280_pressure;Samples;Min_cycle;Max_cycle;Signal;HPM_P1;HPM_P2
2023/09/30 00:02:05;;;;;;;13.55;7.70;;;;;;;23.54;nan;98247.78;5006162;28;20054;-68
2023/09/30 00:04:34;;;;;;;13.88;8.05;;;;;;;23.54;nan;98243.19;5007511;28;20058;-70
2023/09/30 00:07:04;;;;;;;16.25;7.88;;;;;;;23.50;nan;98252.16;5007929;28;20064;-69
2023/09/30 00:09:34;;;;;;;14.70;8.32;;;;;;;23.53;nan;98252.38;5007888;28;20045;-69
2023/09/30 00:12:04;;;;;;;13.32;7.18;;;;;;;23.55;nan;98252.09;5007145;28;20042;-69
2023/09/30 00:14:33;;;;;;;13.63;8.68;;;;;;;23.52;nan;98258.88;5007545;28;20046;-69
2023/09/30 00:17:02;;;;;;;12.90;7.78;;;;;;;23.54;nan;98256.72;5007284;28;20060;-69
2023/09/30 00:19:32;;;;;;;15.40;8.35;;;;;;;23.49;nan;98255.94;4990685;28;20060;-69
2023/09/30 00:22:01;;;;;;;14.65;8.57;;;;;;;23.53;nan;98268.59;5006894;28;20053;-69
2023/09/30 00:24:31;;;;;;;16.67;8.38;;;;;;;23.53;nan;98257.78;5007694;28;20046;-69
2023/09/30 00:27:00;;;;;;;13.50;8.40;;;;;;;23.57;nan;98266.13;5007395;28;20148;-69
2023/09/30 00:29:30;;;;;;;14.30;9.40;;;;;;;23.47;nan;98264.34;5005758;28;20046;-69
2023/09/30 00:31:59;;;;;;;15.07;8.90;;;;;;;23.39;nan;98272.25;4987496;28;20104;-69
2023/09/30 00:34:28;;;;;;;16.33;8.90;;;;;;;23.45;nan;98271.13;5004911;28;20064;-70
2023/09/30 00:36:58;;;;;;;13.38;9.05;;;;;;;23.51;nan;98273.47;5009931;28;20239;-69
2023/09/30 00:39:30;;;;;;;27.27;10.68;;;;;;;23.47;nan;98275.16;5012832;28;20049;-69
2023/09/30 00:41:59;;;;;;;14.23;9.25;;;;;;;23.49;nan;98282.97;5018645;28;20063;-70
2023/09/30 00:44:28;;;;;;;16.25;9.07;;;;;;;23.45;nan;98281.94;5008041;28;20120;-70
2023/09/30 00:46:58;;;;;;;15.07;8.88;;;;;;;23.36;nan;98273.63;5009333;28;20580;-70
2023/09/30 00:49:31;;;;;;;22.40;9.80;;;;;;;23.35;nan;98279.31;4987857;28;20050;-70
2023/09/30 00:52:02;;;;;;;;;;;;;;;23.32;nan;98275.28;5006426;28;20052;-70
2023/09/30 00:54:32;;;;;;;15.05;8.10;;;;;;;23.34;nan;98283.09;5009659;28;20425;-69
2023/09/30 00:57:20;;;;;;;17.13;8.70;;;;;;;23.32;nan;98277.19;4973585;28;20045;-69
2023/09/30 00:59:51;;;;;;;12.60;7.97;;;;;;;23.41;nan;98283.59;4989802;28;20050;-70
2023/09/30 01:02:22;;;;;;;18.25;8.45;;;;;;;23.45;nan;98284.66;5000761;28;20082;-70
2023/09/30 01:04:52;;;;;;;19.58;8.63;;;;;;;23.36;nan;98283.63;4988149;28;20046;-70
2023/09/30 01:07:22;;;;;;;16.10;8.63;;;;;;;23.37;nan;98283.31;5006889;28;20057;-70
2023/09/30 01:09:53;;;;;;;20.05;10.23;;;;;;;23.43;nan;98286.78;5011973;28;20050;-69
2023/09/30 01:12:23;;;;;;;13.98;8.90;;;;;;;23.41;nan;98291.69;4987111;28;20046;-70
2023/09/30 01:14:59;;;;;;;22.25;9.40;;;;;;;23.42;nan;98291.38;4996233;28;20141;-69
2023/09/30 01:17:31;;;;;;;18.83;9.20;;;;;;;23.47;nan;98291.38;5005943;28;20046;-69
2023/09/30 01:20:05;;;;;;;15.57;8.48;;;;;;;23.50;nan;98300.81;5006934;28;20671;-70
2023/09/30 01:22:36;;;;;;;12.40;8.48;;;;;;;23.65;nan;98300.66;4991657;28;20115;-69
2023/09/30 01:29:18;;;;;;;13.98;7.55;;;;;;;23.61;nan;98310.44;5004156;28;20061;-70
2023/09/30 01:31:53;;;;;;;13.40;7.32;;;;;;;23.66;nan;98304.97;5006242;28;20049;-69
2023/09/30 01:34:23;;;;;;;27.05;8.60;;;;;;;23.78;nan;98308.06;4985746;28;20703;-70
2023/09/30 01:36:55;;;;;;;16.73;7.05;;;;;;;23.65;nan;98314.16;5004772;28;20053;-69
2023/09/30 01:39:24;;;;;;;11.60;6.93;;;;;;;23.77;nan;98317.28;5004349;28;20048;-69
2023/09/30 01:41:54;;;;;;;14.27;7.00;;;;;;;23.78;nan;98323.50;5016936;28;20053;-70
2023/09/30 01:44:23;;;;;;;15.10;6.47;;;;;;;23.73;nan;98327.06;5004524;28;20127;-70
2023/09/30 01:46:52;;;;;;;18.50;7.10;;;;;;;23.65;nan;98324.97;5012358;28;20049;-70
2023/09/30 01:49:24;;;;;;;10.05;6.22;;;;;;;23.76;nan;98331.09;5002291;28;20054;-69
2023/09/30 01:51:55;;;;;;;12.25;7.00;;;;;;;23.86;nan;98331.78;5004760;28;20061;-69
2023/09/30 01:54:25;;;;;;;14.98;7.10;;;;;;;23.95;nan;98331.94;5002446;28;20052;-70
2023/09/30 01:56:55;;;;;;;19.35;7.60;;;;;;;24.02;nan;98330.53;5002973;28;20115;-70
2023/09/30 01:59:25;;;;;;;13.52;6.85;;;;;;;23.97;nan;98333.28;4986015;28;20050;-70
2023/09/30 02:01:57;;;;;;;13.35;7.53;;;;;;;24.01;nan;98337.03;4995005;28;20462;-70
2023/09/30 02:04:26;;;;;;;17.17;7.82;;;;;;;24.00;nan;98340.81;4971419;28;20460;-70
2023/09/30 02:06:56;;;;;;;13.95;7.53;;;;;;;24.07;nan;98346.72;4985136;28;20037;-70
2023/09/30 02:09:27;;;;;;;19.02;7.60;;;;;;;24.10;nan;98348.84;5003769;28;20354;-70
2023/09/30 02:11:57;;;;;;;17.77;7.55;;;;;;;24.22;nan;98350.34;4968407;28;20108;-70
2023/09/30 02:14:26;;;;;;;19.73;8.38;;;;;;;24.21;nan;98354.94;4986038;28;20474;-69
2023/09/30 02:16:57;;;;;;;17.20;8.75;;;;;;;24.32;nan;98358.34;5002798;28;20050;-69
2023/09/30 02:19:27;;;;;;;18.98;10.32;;;;;;;24.28;nan;98368.13;4982502;28;20046;-69
2023/09/30 02:21:59;;;;;;;17.27;9.27;;;;;;;24.38;nan;98368.03;5001380;28;20045;-70
2023/09/30 02:24:28;;;;;;;17.77;9.45;;;;;;;24.40;nan;98363.91;5001996;28;20590;-70
2023/09/30 02:26:58;;;;;;;19.65;9.52;;;;;;;24.49;nan;98367.59;5003870;28;20077;-69
2023/09/30 02:29:27;;;;;;;20.15;10.13;;;;;;;24.57;nan;98375.06;4985516;28;20425;-70
2023/09/30 02:31:56;;;;;;;23.58;10.05;;;;;;;24.71;nan;98375.16;5003613;28;20046;-69
2023/09/30 02:34:27;;;;;;;17.83;9.90;;;;;;;24.74;nan;98377.25;4913696;28;2597718;-70
2023/09/30 02:36:56;;;;;;;16.55;9.45;;;;;;;24.83;nan;98382.81;4985611;28;20132;-71
2023/09/30 02:39:26;;;;;;;23.02;10.57;;;;;;;24.82;nan;98382.06;5004891;28;20050;-69
2023/09/30 02:41:56;;;;;;;21.13;9.57;;;;;;;24.82;nan;98383.94;5002552;28;20120;-69
2023/09/30 02:44:25;;;;;;;18.48;9.52;;;;;;;24.83;nan;98383.63;5002982;28;20827;-70
2023/09/30 02:46:55;;;;;;;15.93;9.18;;;;;;;25.07;nan;98380.09;5003376;28;20065;-70
2023/09/30 02:49:24;;;;;;;17.25;10.23;;;;;;;25.08;nan;98384.41;5003407;28;20057;-70
2023/09/30 02:51:54;;;;;;;15.52;9.15;;;;;;;25.20;nan;98388.28;5000652;28;20041;-70
2023/09/30 02:54:24;;;;;;;14.30;8.98;;;;;;;25.25;nan;98390.09;5003358;28;20042;-70
2023/09/30 02:56:54;;;;;;;24.13;9.93;;;;;;;25.27;nan;98394.13;5001579;28;20057;-70
2023/09/30 02:59:24;;;;;;;17.83;8.27;;;;;;;25.31;nan;98391.66;4986649;28;20041;-70
2023/09/30 03:01:54;;;;;;;15.98;8.93;;;;;;;25.39;nan;98396.38;4992319;28;20401;-70
2023/09/30 03:04:25;;;;;;;15.95;8.65;;;;;;;25.47;nan;98401.94;5001883;28;20116;-70
2023/09/30 03:06:58;;;;;;;18.50;7.78;;;;;;;25.59;nan;98400.69;4979520;28;20046;-70
2023/09/30 03:09:27;;;;;;;18.50;8.15;;;;;;;25.54;nan;98403.47;4995496;28;20425;-70
2023/09/30 03:11:58;;;;;;;17.40;9.57;;;;;;;25.62;nan;98405.53;5008527;28;20045;-71
2023/09/30 03:14:30;;;;;;;14.90;8.77;;;;;;;25.57;nan;98403.72;5005946;28;20057;-70
2023/09/30 03:17:03;;;;;;;24.20;9.10;;;;;;;25.64;nan;98414.97;5007705;28;20064;-70
2023/09/30 03:19:33;;;;;;;13.68;7.97;;;;;;;25.79;nan;98409.28;5009952;28;20050;-70
2023/09/30 03:22:04;;;;;;;16.23;8.50;;;;;;;25.88;nan;98412.94;5007950;28;20161;-71
2023/09/30 03:24:34;;;;;;;19.42;9.30;;;;;;;26.01;nan;98413.25;5007920;28;20052;-69
2023/09/30 03:27:04;;;;;;;22.60;9.73;;;;;;;26.14;nan;98415.16;5008311;28;20053;-70
2023/09/30 03:29:35;;;;;;;15.45;9.20;;;;;;;26.13;nan;98414.34;5007784;28;20457;-70
2023/09/30 03:32:04;;;;;;;20.13;9.55;;;;;;;26.21;nan;98423.75;5007066;28;20537;-70
2023/09/30 03:34:36;;;;;;;16.77;9.88;;;;;;;26.22;nan;98414.50;5007283;28;20046;-71
2023/09/30 03:37:09;;;;;;;21.67;9.85;;;;;;;26.13;nan;98424.41;5006818;28;20138;-70
2023/09/30 03:39:40;;;;;;;18.65;9.82;;;;;;;26.29;nan;98409.47;4993258;28;20083;-70
2023/09/30 03:42:13;;;;;;;21.77;9.95;;;;;;;26.44;nan;98414.59;5007318;28;20567;-70
2023/09/30 03:44:43;;;;;;;22.15;10.68;;;;;;;26.51;nan;98417.69;5007124;28;20050;-70
2023/09/30 03:47:12;;;;;;;23.40;11.25;;;;;;;26.60;nan;98418.59;5011723;28;20112;-70
2023/09/30 03:49:44;;;;;;;20.98;10.63;;;;;;;26.76;nan;98419.91;5011411;28;20050;-70
2023/09/30 03:52:17;;;;;;;23.60;11.27;;;;;;;26.94;nan;98420.91;5007086;28;20054;-70
2023/09/30 03:54:48;;;;;;;25.10;12.40;;;;;;;27.13;nan;98429.69;5007117;28;20049;-70
2023/09/30 03:57:17;;;;;;;21.48;10.73;;;;;;;27.18;nan;98426.06;5009045;28;20060;-70
2023/09/30 03:59:47;;;;;;;18.15;10.95;;;;;;;27.12;nan;98430.03;5007368;28;20058;-70
2023/09/30 04:02:16;;;;;;;21.77;11.40;;;;;;;27.18;nan;98426.88;5007034;28;20137;-68
2023/09/30 04:04:46;;;;;;;30.63;12.68;;;;;;;27.47;nan;98433.81;5007754;28;20164;-69
2023/09/30 04:07:18;;;;;;;25.15;12.15;;;;;;;27.49;nan;98432.41;5006492;28;20045;-70
2023/09/30 04:09:47;;;;;;;20.30;12.63;;;;;;;27.09;nan;98444.22;5006830;28;20497;-71
2023/09/30 04:12:17;;;;;;;22.30;12.38;;;;;;;27.44;nan;98439.88;5012780;28;20374;-70
2023/09/30 04:14:46;;;;;;;25.70;12.18;;;;;;;27.94;nan;98443.28;5012260;28;20057;-72
2023/09/30 04:17:15;;;;;;;23.17;11.85;;;;;;;28.02;nan;98446.03;5014868;28;20132;-70
2023/09/30 04:19:45;;;;;;;24.52;12.70;;;;;;;28.18;nan;98446.47;5016165;28;20045;-69
2023/09/30 04:22:16;;;;;;;22.52;13.25;;;;;;;28.35;nan;98449.28;5017602;28;20114;-70
2023/09/30 04:24:46;;;;;;;25.90;13.45;;;;;;;28.69;nan;98459.47;5007837;28;20061;-72
2023/09/30 04:27:16;;;;;;;27.77;15.68;;;;;;;28.88;nan;98460.06;5010009;28;20045;-71
2023/09/30 04:29:45;;;;;;;25.23;13.52;;;;;;;29.24;nan;98457.06;5015798;28;20042;-71
2023/09/30 04:32:15;;;;;;;23.58;13.70;;;;;;;29.48;nan;98455.78;5020616;28;20049;-71
2023/09/30 04:34:45;;;;;;;26.35;14.43;;;;;;;29.68;nan;98453.22;4997552;28;20061;-69
2023/09/30 04:37:23;;;;;;;29.15;15.65;;;;;;;29.85;nan;98461.38;5016272;28;20056;-67
2023/09/30 04:40:22;;;;;;;27.02;14.38;;;;;;;29.93;nan;98465.22;5013572;28;20705;-67
2023/09/30 04:42:54;;;;;;;29.42;13.30;;;;;;;30.06;nan;98460.69;5015937;28;20049;-66
2023/09/30 04:45:24;;;;;;;23.02;13.45;;;;;;;30.46;nan;98472.16;5014331;28;20364;-67
2023/09/30 04:47:56;;;;;;;29.10;14.38;;;;;;;30.57;nan;98473.41;5013735;28;20084;-67
2023/09/30 04:50:25;;;;;;;25.00;13.13;;;;;;;30.54;nan;98480.31;5012236;28;20049;-68
2023/09/30 04:52:55;;;;;;;20.35;11.27;;;;;;;30.71;nan;98480.22;5015685;28;20452;-67
2023/09/30 04:55:26;;;;;;;23.25;13.38;;;;;;;30.77;nan;98470.72;5009173;28;20045;-70
2023/09/30 04:57:55;;;;;;;22.85;12.73;;;;;;;31.15;nan;98472.63;5016971;28;20056;-70
2023/09/30 05:00:28;;;;;;;27.45;13.60;;;;;;;31.24;nan;98472.56;5009446;28;20060;-69
2023/09/30 05:03:00;;;;;;;23.42;12.52;;;;;;;31.53;nan;98478.75;5014310;28;20687;-69
2023/09/30 05:05:46;;;;;;;20.92;11.80;;;;;;;31.73;nan;98476.38;4999307;28;20119;-69
2023/09/30 05:08:19;;;;;;;21.83;11.98;;;;;;;31.34;nan;98480.34;5014376;28;20049;-69
2023/09/30 05:10:48;;;;;;;25.08;11.68;;;;;;;32.00;nan;98479.28;4995095;28;20444;-70
2023/09/30 05:13:18;;;;;;;25.00;12.27;;;;;;;31.40;nan;98481.75;5018803;28;20054;-69
2023/09/30 05:15:51;;;;;;;21.73;11.38;;;;;;;31.51;nan;98481.00;5015574;28;20053;-69
2023/09/30 05:18:20;;;;;;;22.77;11.38;;;;;;;31.84;nan;98478.34;5016783;28;20100;-69
2023/09/30 05:20:50;;;;;;;23.15;9.98;;;;;;;31.30;nan;98476.69;5015267;28;20068;-69
2023/09/30 05:23:19;;;;;;;24.48;10.48;;;;;;;31.66;nan;98479.63;5017306;28;20136;-68
2023/09/30 05:25:48;;;;;;;20.48;9.95;;;;;;;31.75;nan;98477.63;5013527;28;20046;-73
2023/09/30 05:28:18;;;;;;;23.38;10.63;;;;;;;31.77;nan;98471.81;5015137;28;20073;-69
2023/09/30 05:30:50;;;;;;;17.58;9.93;;;;;;;32.03;nan;98478.63;5009162;28;20049;-70
2023/09/30 05:33:20;;;;;;;20.95;10.20;;;;;;;32.70;nan;98468.38;5011757;28;20045;-69
2023/09/30 05:35:49;;;;;;;20.77;9.75;;;;;;;32.34;nan;98469.94;5013423;28;20092;-71
2023/09/30 05:38:20;;;;;;;22.65;10.07;;;;;;;32.12;nan;98469.53;5014579;28;20049;-71
2023/09/30 05:40:49;;;;;;;30.17;9.95;;;;;;;31.75;nan;98474.88;4988305;28;20041;-72
2023/09/30 05:43:19;;;;;;;18.60;9.68;;;;;;;32.21;nan;98468.31;5003063;28;20049;-70
2023/09/30 05:45:54;;;;;;;23.92;9.50;;;;;;;32.05;nan;98464.56;5000062;28;20066;-72
2023/09/30 05:48:26;;;;;;;17.13;8.73;;;;;;;31.99;nan;98463.22;5004720;28;20115;-72
2023/09/30 05:50:56;;;;;;;25.73;10.07;;;;;;;32.42;nan;98462.72;5000365;28;20045;-71
2023/09/30 05:53:27;;;;;;;17.25;9.02;;;;;;;32.22;nan;98456.19;5005360;28;20053;-72
2023/09/30 05:55:59;;;;;;;13.55;9.75;;;;;;;32.07;nan;98454.91;4984901;28;20386;-71
2023/09/30 05:58:31;;;;;;;21.08;10.23;;;;;;;31.98;nan;98462.41;5005442;28;20069;-69
2023/09/30 06:01:00;;;;;;;19.05;10.18;;;;;;;31.98;nan;98448.72;4998472;28;20072;-67
2023/09/30 06:03:30;;;;;;;24.77;10.05;;;;;;;31.79;nan;98453.09;4999671;28;20049;-69
2023/09/30 06:06:00;;;;;;;22.52;9.68;;;;;;;31.86;nan;98456.09;5006055;28;20079;-70
2023/09/30 06:08:29;;;;;;;20.35;11.00;;;;;;;31.95;nan;98449.41;5004404;28;20050;-69
2023/09/30 06:10:59;;;;;;;30.08;11.65;;;;;;;31.97;nan;98444.34;5003765;28;20837;-69
2023/09/30 06:13:31;;;;;;;23.80;10.90;;;;;;;32.20;nan;98444.78;5009624;28;20045;-71
2023/09/30 06:16:06;;;;;;;36.92;12.70;;;;;;;31.93;nan;98446.19;5003592;28;20050;-69
2023/09/30 06:18:40;;;;;;;22.58;10.80;;;;;;;31.73;nan;98438.81;4991416;28;20054;-70
2023/09/30 06:21:10;;;;;;;27.52;11.93;;;;;;;32.00;nan;98435.44;5010198;28;20701;-70
2023/09/30 06:23:39;;;;;;;23.38;11.35;;;;;;;32.05;nan;98442.66;5007149;28;20065;-70
2023/09/30 06:26:09;;;;;;;24.75;11.25;;;;;;;32.13;nan;98436.34;5004034;28;20104;-70
2023/09/30 06:28:40;;;;;;;33.72;13.27;;;;;;;31.92;nan;98433.59;5013481;28;20408;-69
2023/09/30 06:31:10;;;;;;;24.67;11.60;;;;;;;32.40;nan;98440.31;5003870;28;20059;-69
2023/09/30 06:33:41;;;;;;;33.13;12.95;;;;;;;32.15;nan;98425.81;5006985;28;20054;-70
2023/09/30 06:36:13;;;;;;;32.30;12.73;;;;;;;32.12;nan;98421.03;5003392;28;20053;-68
2023/09/30 06:38:53;;;;;;;25.15;12.80;;;;;;;32.31;nan;98424.00;4986587;28;20050;-68
2023/09/30 06:41:23;;;;;;;26.70;11.35;;;;;;;32.58;nan;98408.78;5004882;28;20564;-68
2023/09/30 06:43:52;;;;;;;29.02;12.90;;;;;;;32.71;nan;98413.16;5012405;28;20041;-69
2023/09/30 06:46:23;;;;;;;27.58;12.75;;;;;;;32.64;nan;98415.69;5000049;28;20116;-69
2023/09/30 06:48:53;;;;;;;29.17;13.32;;;;;;;32.69;nan;98412.72;5004164;28;20041;-70
2023/09/30 06:51:22;;;;;;;26.83;13.38;;;;;;;32.82;nan;98406.06;5001519;28;20054;-67
2023/09/30 06:53:51;;;;;;;36.03;14.32;;;;;;;32.95;nan;98410.38;5000383;28;20436;-69
2023/09/30 06:56:21;;;;;;;34.92;14.00;;;;;;;32.88;nan;98407.41;5010254;28;20061;-68
2023/09/30 06:58:50;;;;;;;34.55;15.13;;;;;;;33.21;nan;98401.75;5002502;28;20140;-72
2023/09/30 07:01:20;;;;;;;35.95;15.27;;;;;;;33.23;nan;98409.66;5004230;28;20053;-73
2023/09/30 07:03:52;;;;;;;40.47;14.77;;;;;;;33.16;nan;98404.75;5002569;28;20701;-71
2023/09/30 07:06:26;;;;;;;28.05;13.75;;;;;;;32.64;nan;98391.00;4997516;28;20061;-71
2023/09/30 07:08:55;;;;;;;36.25;13.68;;;;;;;32.34;nan;98386.88;4985234;28;20112;-70
2023/09/30 07:11:29;;;;;;;36.75;15.93;;;;;;;32.12;nan;98384.59;5006339;28;20050;-70
2023/09/30 07:13:59;;;;;;;38.65;16.30;;;;;;;32.41;nan;98384.34;5001167;28;20177;-72
2023/09/30 07:16:28;;;;;;;36.92;15.02;;;;;;;32.43;nan;98385.63;4998497;28;20756;-70
2023/09/30 07:18:57;;;;;;;37.03;15.52;;;;;;;32.45;nan;98380.59;4997559;28;20038;-73
2023/09/30 07:21:27;;;;;;;42.33;15.50;;;;;;;32.61;nan;98377.97;5006576;28;20042;-73
2023/09/30 07:24:06;;;;;;;37.92;14.93;;;;;;;32.80;nan;98378.16;5003772;28;20670;-75
2023/09/30 07:26:36;;;;;;;46.08;17.25;;;;;;;31.96;nan;98366.03;5004956;28;20052;-70
2023/09/30 07:29:05;;;;;;;33.28;15.20;;;;;;;32.24;nan;98368.94;5018294;28;20049;-74
2023/09/30 07:31:48;;;;;;;28.92;14.07;;;;;;;32.45;nan;98366.88;5006788;28;20045;-74
2023/09/30 07:34:17;;;;;;;35.65;12.95;;;;;;;32.52;nan;98361.63;5007478;28;20049;-71
2023/09/30 07:36:47;;;;;;;32.85;13.85;;;;;;;32.36;nan;98360.72;4999792;28;20056;-72
2023/09/30 07:39:17;;;;;;;27.25;12.30;;;;;;;32.45;nan;98355.09;5008570;28;20041;-72
2023/09/30 07:41:46;;;;;;;34.60;13.63;;;;;;;32.43;nan;98350.00;5000684;28;20131;-69
2023/09/30 07:44:16;;;;;;;32.58;12.25;;;;;;;32.43;nan;98346.44;5002310;28;20046;-73
2023/09/30 07:46:45;;;;;;;30.55;12.88;;;;;;;32.45;nan;98346.88;5004521;28;20061;-71
2023/09/30 07:49:17;;;;;;;27.05;13.07;;;;;;;32.37;nan;98347.81;5001699;28;20373;-71
2023/09/30 07:51:46;;;;;;;30.20;13.35;;;;;;;32.33;nan;98350.44;5004981;28;20064;-70
2023/09/30 07:54:17;;;;;;;26.00;12.27;;;;;;;32.25;nan;98342.34;5008863;28;20486;-69
2023/09/30 07:57:00;;;;;;;25.02;11.88;;;;;;;32.16;nan;98344.41;5000154;28;20057;-69
2023/09/30 07:59:30;;;;;;;38.10;12.83;;;;;;;32.19;nan;98339.03;5003829;28;20072;-69
2023/09/30 08:02:06;;;;;;;20.73;9.90;;;;;;;32.17;nan;98332.28;4979904;28;20115;-72
2023/09/30 08:04:36;;;;;;;28.73;10.18;;;;;;;32.15;nan;98326.34;5013484;28;20060;-69
2023/09/30 08:07:05;;;;;;;22.05;9.95;;;;;;;32.18;nan;98320.16;4994209;28;20472;-71
2023/09/30 08:09:37;;;;;;;23.77;10.48;;;;;;;32.15;nan;98326.34;4986756;28;20100;-70
2023/09/30 08:12:15;;;;;;;31.02;10.75;;;;;;;32.04;nan;98318.53;5002895;28;20123;-70
2023/09/30 08:14:44;;;;;;;21.13;9.93;;;;;;;31.97;nan;98315.59;5007603;28;20058;-69
2023/09/30 08:17:14;;;;;;;20.52;8.15;;;;;;;32.14;nan;98309.09;5003936;28;20152;-69
2023/09/30 08:19:44;;;;;;;21.95;7.13;;;;;;;32.21;nan;98309.34;5005229;28;21678;-69
2023/09/30 08:22:14;;;;;;;16.33;7.13;;;;;;;32.23;nan;98303.50;5005039;28;20120;-69
2023/09/30 08:24:44;;;;;;;15.82;6.82;;;;;;;32.24;nan;98294.13;5014188;28;20200;-69
2023/09/30 08:27:16;;;;;;;31.23;9.75;;;;;;;32.25;nan;98299.28;5011782;28;20804;-69
2023/09/30 08:29:46;;;;;;;17.63;8.70;;;;;;;32.17;nan;98289.25;5015368;28;20057;-69
2023/09/30 08:32:15;;;;;;;13.90;6.40;;;;;;;32.11;nan;98285.13;5014224;28;20146;-69
2023/09/30 08:34:47;;;;;;;16.50;6.18;;;;;;;32.02;nan;98279.75;5017427;28;20073;-69
2023/09/30 08:37:19;;;;;;;12.82;5.45;;;;;;;32.11;nan;98281.59;5013301;28;20527;-70
2023/09/30 08:39:50;;;;;;;18.33;6.37;;;;;;;32.14;nan;98275.41;5009952;28;20045;-70
2023/09/30 08:42:24;;;;;;;13.77;4.82;;;;;;;32.11;nan;98279.66;5005327;28;20054;-67
2023/09/30 08:44:54;;;;;;;16.45;5.50;;;;;;;32.13;nan;98268.34;5011126;28;20139;-67
2023/09/30 08:47:28;;;;;;;15.32;5.40;;;;;;;32.13;nan;98260.94;4998386;28;20165;-69
2023/09/30 08:50:05;;;;;;;17.35;5.70;;;;;;;32.16;nan;98264.91;5004975;28;20049;-69
2023/09/30 08:52:38;;;;;;;14.15;5.80;;;;;;;32.09;nan;98258.06;4994772;28;20124;-70
2023/09/30 08:55:13;;;;;;;15.63;6.53;;;;;;;32.01;nan;98255.41;5001997;28;20332;-72
2023/09/30 08:57:43;;;;;;;16.60;6.70;;;;;;;32.00;nan;98249.13;5005390;28;20053;-70
2023/09/30 09:00:13;;;;;;;14.43;5.30;;;;;;;32.01;nan;98248.00;5001910;28;20073;-69
2023/09/30 09:02:43;;;;;;;15.68;5.47;;;;;;;32.08;nan;98248.22;4988681;28;20052;-70
2023/09/30 09:05:16;;;;;;;;;;;;;;;32.16;nan;98238.31;4995618;28;20104;-70
2023/09/30 09:07:50;;;;;;;17.33;5.15;;;;;;;32.15;nan;98246.88;4999251;28;19936;-70
2023/09/30 09:10:19;;;;;;;16.20;6.00;;;;;;;32.12;nan;98240.16;5004463;28;20100;-70
2023/09/30 09:12:59;;;;;;;19.10;6.97;;;;;;;32.17;nan;98228.94;5001242;28;20147;-70
2023/09/30 09:15:29;;;;;;;20.15;7.80;;;;;;;32.11;nan;98229.53;4993261;28;20192;-69
2023/09/30 09:17:59;;;;;;;19.83;7.13;;;;;;;32.05;nan;98226.97;4996973;28;20812;-70
2023/09/30 09:20:28;;;;;;;24.27;9.32;;;;;;;31.95;nan;98224.72;5001651;28;20049;-70
2023/09/30 09:23:00;;;;;;;20.10;8.65;;;;;;;31.91;nan;98226.53;5002485;28;20050;-71
2023/09/30 09:25:39;;;;;;;23.15;8.27;;;;;;;31.93;nan;98224.25;5000770;28;20721;-70
2023/09/30 09:28:08;;;;;;;19.52;8.65;;;;;;;31.93;nan;98224.25;5000132;28;20045;-70
2023/09/30 09:30:41;;;;;;;17.63;7.78;;;;;;;31.88;nan;98218.22;5001157;28;20052;-70
2023/09/30 09:33:13;;;;;;;24.02;9.43;;;;;;;31.87;nan;98217.41;4985861;28;20057;-70
2023/09/30 09:35:51;;;;;;;20.77;8.13;;;;;;;31.73;nan;98208.78;4983620;28;20038;-70
2023/09/30 09:38:22;;;;;;;21.02;8.40;;;;;;;31.72;nan;98209.91;4961995;28;20050;-70
2023/09/30 09:41:01;;;;;;;16.80;8.02;;;;;;;31.72;nan;98206.34;4981979;28;20506;-70
2023/09/30 09:43:36;;;;;;;28.83;8.90;;;;;;;31.71;nan;98202.81;4984398;28;20200;-70
2023/09/30 09:46:11;;;;;;;22.90;7.85;;;;;;;31.73;nan;98200.56;4974347;28;20362;-70
2023/09/30 09:48:57;;;;;;;;;;;;;;;;;;;;;
2023/09/30 09:51:31;;;;;;;17.98;7.30;;;;;;;31.70;nan;98195.75;4982746;28;20149;-70
2023/09/30 09:54:13;;;;;;;19.25;7.55;;;;;;;31.70;nan;98192.19;4982238;28;20050;-70
2023/09/30 09:56:49;;;;;;;20.60;8.98;;;;;;;31.69;nan;98191.41;4974167;28;20135;-70
2023/09/30 09:59:26;;;;;;;17.27;8.27;;;;;;;31.72;nan;98184.44;4974469;28;20050;-70
2023/09/30 10:02:05;;;;;;;21.23;8.25;;;;;;;31.69;nan;98185.16;4982005;28;20054;-70
2023/09/30 10:05:08;;;;;;;22.98;8.30;;;;;;;31.53;nan;98176.78;4967691;28;20050;-71
2023/09/30 10:07:51;;;;;;;25.05;8.70;;;;;;;31.47;nan;98172.66;4967807;28;20058;-70
2023/09/30 10:10:28;;;;;;;16.08;8.98;;;;;;;31.45;nan;98164.00;4979609;28;20054;-71
2023/09/30 10:13:03;;;;;;;28.08;9.43;;;;;;;31.55;nan;98171.81;4985074;28;20061;-70
2023/09/30 10:15:42;;;;;;;23.77;10.45;;;;;;;31.46;nan;98168.34;4964107;28;21012;-71
2023/09/30 10:18:15;;;;;;;21.35;9.82;;;;;;;31.38;nan;98164.56;4970199;28;20511;-71
2023/09/30 10:20:49;;;;;;;23.42;11.05;;;;;;;31.29;nan;98163.88;4991045;28;20155;-69
2023/09/30 10:23:20;;;;;;;24.92;12.70;;;;;;;31.32;nan;98160.47;4972226;28;20137;-69
2023/09/30 10:26:14;;;;;;;19.83;12.18;;;;;;;31.32;nan;98157.72;4971285;28;20108;-69
2023/09/30 10:28:50;;;;;;;25.65;13.75;;;;;;;31.28;nan;98151.34;4967592;28;20046;-69
2023/09/30 10:31:27;;;;;;;28.80;15.32;;;;;;;31.22;nan;98149.97;4985561;28;20050;-69
2023/09/30 10:34:01;;;;;;;31.80;15.88;;;;;;;31.16;nan;98154.84;4983886;28;20213;-70
2023/09/30 10:36:33;;;;;;;29.27;16.13;;;;;;;31.17;nan;98151.00;4986017;28;20080;-70
2023/09/30 10:39:13;;;;;;;27.98;14.00;;;;;;;31.19;nan;98145.19;4988987;28;20046;-70
2023/09/30 10:41:46;;;;;;;23.35;13.52;;;;;;;31.14;nan;98148.94;4990371;28;20042;-70
2023/09/30 10:44:36;;;;;;;25.17;12.90;;;;;;;31.10;nan;98139.00;4989734;28;20050;-69
2023/09/30 10:47:27;;;;;;;21.25;10.27;;;;;;;31.01;nan;98141.84;4969149;28;20116;-69
2023/09/30 10:50:00;;;;;;;;;;;;;;;31.02;nan;98139.94;4981755;28;20058;-69
2023/09/30 10:52:31;;;;;;;25.30;11.75;;;;;;;30.93;nan;98133.72;4966897;28;19925;-70
2023/09/30 10:55:08;;;;;;;22.23;10.02;;;;;;;30.90;nan;98135.19;4982117;28;20929;-70
2023/09/30 10:57:45;;;;;;;21.15;10.32;;;;;;;30.90;nan;98128.91;4971709;28;20467;-69
2023/09/30 11:00:20;;;;;;;20.92;10.45;;;;;;;30.81;nan;98133.69;4960382;28;20046;-70
2023/09/30 11:03:12;;;;;;;21.73;9.32;;;;;;;30.70;nan;98133.31;4980034;28;20394;-70
2023/09/30 11:05:48;;;;;;;16.88;9.43;;;;;;;30.67;nan;98131.28;4981180;28;20384;-68
2023/09/30 11:08:47;;;;;;;19.50;10.05;;;;;;;30.66;nan;98133.22;4980048;28;20046;-73
2023/09/30 11:11:18;;;;;;;24.13;9.65;;;;;;;30.54;nan;98130.41;4958283;28;20733;-73
2023/09/30 11:13:49;;;;;;;24.65;10.65;;;;;;;30.49;nan;98119.72;4967722;28;20053;-71
2023/09/30 11:16:22;;;;;;;;;;;;;;;30.42;nan;98121.34;4981172;28;20128;-71
2023/09/30 11:18:55;;;;;;;22.50;10.77;;;;;;;30.34;nan;98118.38;4980495;28;20273;-70
2023/09/30 11:21:26;;;;;;;25.40;10.73;;;;;;;30.26;nan;98111.06;4947503;28;20042;-70
2023/09/30 11:24:00;;;;;;;23.30;10.55;;;;;;;30.24;nan;98121.50;4981121;28;20054;-69
2023/09/30 11:26:33;;;;;;;28.92;11.32;;;;;;;30.20;nan;98120.59;4964080;28;20132;-70
2023/09/30 11:29:17;;;;;;;23.75;11.27;;;;;;;30.16;nan;98113.38;4979118;28;20068;-71
2023/09/30 11:31:50;;;;;;;23.48;11.13;;;;;;;30.16;nan;98108.72;4979113;28;20140;-68
2023/09/30 11:34:32;;;;;;;31.85;13.35;;;;;;;30.09;nan;98102.22;4636092;28;10000157;-70
2023/09/30 11:37:02;;;;;;;26.63;12.98;;;;;;;29.99;nan;98097.94;4963777;28;20074;-69
2023/09/30 11:39:36;;;;;;;32.85;13.65;;;;;;;29.90;nan;98113.59;4978988;28;20047;-66
2023/09/30 11:42:19;;;;;;;27.00;12.73;;;;;;;29.86;nan;98109.91;4961591;28;20088;-69
2023/09/30 11:44:50;;;;;;;30.00;13.10;;;;;;;29.82;nan;98104.31;4977758;28;20046;-67
2023/09/30 11:47:34;;;;;;;20.27;13.02;;;;;;;29.79;nan;98106.91;4982482;28;20081;-68
2023/09/30 11:50:04;;;;;;;22.48;11.35;;;;;;;29.74;nan;98107.13;4981140;28;20065;-69
2023/09/30 11:52:35;;;;;;;23.90;12.00;;;;;;;29.65;nan;98106.38;4965796;28;20160;-71
2023/09/30 11:55:06;;;;;;;25.23;11.13;;;;;;;29.59;nan;98103.03;4979219;28;20142;-69
2023/09/30 11:57:36;;;;;;;34.58;12.15;;;;;;;29.54;nan;98103.22;4966086;28;20050;-69
2023/09/30 12:00:13;;;;;;;29.25;11.35;;;;;;;29.53;nan;98092.63;4981781;28;20881;-70
2023/09/30 12:02:42;;;;;;;25.92;10.68;;;;;;;29.47;nan;98099.44;4983693;28;20541;-70
2023/09/30 12:05:13;;;;;;;32.10;13.05;;;;;;;29.39;nan;98099.13;4983504;28;20061;-73
2023/09/30 12:07:42;;;;;;;26.38;11.70;;;;;;;29.38;nan;98097.56;4982620;28;20136;-72